createdAt,value
2019-05-29T00:00:13.395Z,8.30
2019-05-29T00:02:42.590Z,8.20
2019-05-29T00:05:12.211Z,8.20
2019-05-29T00:07:41.611Z,8.20
2019-05-29T00:10:12.267Z,8.20
2019-05-29T00:12:41.456Z,8.10
2019-05-29T00:15:12.434Z,8.10
2019-05-29T00:17:40.652Z,8.20
2019-05-29T00:20:10.553Z,8.30
2019-05-29T00:22:39.884Z,8.20
2019-05-29T00:25:10.615Z,8.10
2019-05-29T00:27:39.438Z,8.20
2019-05-29T00:30:08.845Z,8.10
2019-05-29T00:32:38.449Z,8.00
2019-05-29T00:35:08.485Z,8.00
2019-05-29T00:37:37.294Z,8.00
2019-05-29T00:40:10.813Z,8.00
2019-05-29T00:42:40.023Z,7.90
2019-05-29T00:45:09.727Z,7.90
2019-05-29T00:47:38.508Z,8.00
2019-05-29T00:50:08.524Z,7.90
2019-05-29T00:52:37.372Z,7.90
2019-05-29T00:55:07.018Z,8.10
2019-05-29T00:57:36.442Z,8.10
2019-05-29T01:00:06.972Z,8.10
2019-05-29T01:02:35.867Z,8.20
2019-05-29T01:05:06.994Z,8.20
2019-05-29T01:07:35.823Z,8.20
2019-05-29T01:10:06.783Z,8.20
2019-05-29T01:12:35.628Z,8.10
2019-05-29T01:15:05.600Z,8.00
2019-05-29T01:17:34.357Z,8.00
2019-05-29T01:20:03.516Z,8.10
2019-05-29T01:22:32.241Z,8.20
2019-05-29T01:25:01.221Z,8.30
2019-05-29T01:27:30.109Z,8.20
2019-05-29T01:29:59.408Z,8.10
2019-05-29T01:32:28.192Z,8.00
2019-05-29T01:34:57.406Z,7.90
2019-05-29T01:37:26.441Z,7.90
2019-05-29T01:39:55.592Z,7.80
2019-05-29T01:42:24.489Z,7.70
2019-05-29T01:45:06.363Z,7.70
2019-05-29T01:47:23.704Z,7.70
2019-05-29T01:49:52.772Z,7.80
2019-05-29T01:52:21.900Z,7.80
2019-05-29T01:54:50.854Z,7.90
2019-05-29T01:57:19.734Z,7.90
2019-05-29T01:59:48.634Z,8.00
2019-05-29T02:02:17.802Z,8.00
2019-05-29T02:04:46.841Z,8.00
2019-05-29T02:07:15.859Z,8.10
2019-05-29T02:09:44.956Z,8.20
2019-05-29T02:12:13.855Z,8.30
2019-05-29T02:14:42.564Z,8.30
2019-05-29T02:17:12.266Z,8.40
2019-05-29T02:19:41.114Z,8.40
2019-05-29T02:22:10.034Z,8.40
2019-05-29T02:24:38.836Z,8.40
2019-05-29T02:27:09.630Z,8.50
2019-05-29T02:29:38.395Z,8.50
2019-05-29T02:32:07.376Z,8.50
2019-05-29T02:34:36.116Z,8.50
2019-05-29T02:37:04.983Z,8.60
2019-05-29T02:39:33.841Z,8.60
2019-05-29T02:42:02.709Z,8.60
2019-05-29T02:44:31.716Z,8.70
2019-05-29T02:47:00.802Z,8.70
2019-05-29T02:49:30.317Z,8.70
2019-05-29T02:51:59.661Z,8.60
2019-05-29T02:54:30.089Z,8.60
2019-05-29T02:56:59.251Z,8.60
2019-05-29T02:59:29.650Z,8.60
2019-05-29T03:01:58.446Z,8.60
2019-05-29T03:04:28.174Z,8.60
2019-05-29T03:06:57.541Z,8.70
2019-05-29T03:09:28.331Z,8.70
2019-05-29T03:12:00.081Z,8.70
2019-05-29T03:14:29.417Z,8.70
2019-05-29T03:16:58.219Z,8.70
2019-05-29T03:19:27.996Z,8.70
2019-05-29T03:21:57.046Z,8.80
2019-05-29T03:24:26.645Z,8.80
2019-05-29T03:26:55.915Z,8.80
2019-05-29T03:29:26.021Z,8.90
2019-05-29T03:31:55.151Z,8.80
2019-05-29T03:34:26.946Z,8.80
2019-05-29T03:36:54.613Z,8.90
2019-05-29T03:39:23.330Z,8.90
2019-05-29T03:41:52.105Z,8.90
2019-05-29T03:44:21.083Z,8.90
2019-05-29T03:46:49.852Z,8.90
2019-05-29T03:49:18.799Z,8.90
2019-05-29T03:51:47.834Z,9.00
2019-05-29T03:54:16.623Z,9.00
2019-05-29T03:56:45.402Z,9.10
2019-05-29T03:59:15.148Z,9.10
2019-05-29T04:01:43.919Z,9.10
2019-05-29T04:04:12.854Z,9.00
2019-05-29T04:06:41.690Z,9.10
2019-05-29T04:09:10.478Z,9.10
2019-05-29T04:11:40.190Z,9.00
2019-05-29T04:14:09.078Z,9.10
2019-05-29T04:16:58.152Z,9.10
2019-05-29T04:19:10.244Z,9.10
2019-05-29T04:21:40.804Z,9.20
2019-05-29T04:24:09.592Z,9.30
2019-05-29T04:26:41.170Z,9.30
2019-05-29T04:29:11.339Z,9.30
2019-05-29T04:31:40.471Z,9.30
2019-05-29T04:34:09.182Z,9.30
2019-05-29T04:36:39.927Z,9.30
2019-05-29T04:39:08.406Z,9.40
2019-05-29T04:41:37.692Z,9.40
2019-05-29T04:44:08.006Z,9.40
2019-05-29T04:46:38.321Z,9.40
2019-05-29T04:49:07.191Z,9.40
2019-05-29T04:51:37.296Z,9.40
2019-05-29T04:54:06.547Z,9.50
2019-05-29T04:56:35.276Z,9.50
2019-05-29T04:59:04.276Z,9.50
2019-05-29T05:01:33.126Z,9.50
2019-05-29T05:04:02.106Z,9.50
2019-05-29T05:06:31.239Z,9.60
2019-05-29T05:09:00.029Z,9.60
2019-05-29T05:11:29.358Z,9.80
2019-05-29T05:14:01.432Z,9.90
2019-05-29T05:16:29.736Z,10.00
2019-05-29T05:19:00.560Z,10.10
2019-05-29T05:21:33.938Z,10.00
2019-05-29T05:24:03.048Z,9.90
2019-05-29T05:26:34.635Z,9.90
2019-05-29T05:29:03.725Z,10.10
2019-05-29T05:31:33.060Z,10.40
2019-05-29T05:34:01.816Z,10.40
2019-05-29T05:36:32.630Z,10.50
2019-05-29T05:39:01.958Z,10.50
2019-05-29T05:41:31.025Z,10.20
2019-05-29T05:43:59.948Z,10.10
2019-05-29T05:46:29.043Z,10.20
2019-05-29T05:49:00.165Z,10.20
2019-05-29T05:51:31.223Z,10.20
2019-05-29T05:54:00.144Z,10.20
2019-05-29T05:56:28.877Z,10.20
2019-05-29T05:58:58.210Z,10.30
2019-05-29T06:01:28.517Z,10.20
2019-05-29T06:03:58.865Z,10.30
2019-05-29T06:06:27.723Z,10.50
2019-05-29T06:08:56.649Z,10.80
2019-05-29T06:11:25.742Z,10.90
2019-05-29T06:13:54.501Z,10.70
2019-05-29T06:16:23.729Z,10.70
2019-05-29T06:18:52.485Z,10.90
2019-05-29T06:21:21.226Z,11.10
2019-05-29T06:23:50.055Z,11.00
2019-05-29T06:26:19.094Z,10.90
2019-05-29T06:28:47.952Z,11.00
2019-05-29T06:31:16.858Z,10.80
2019-05-29T06:33:45.769Z,10.90
2019-05-29T06:36:14.668Z,10.80
2019-05-29T06:38:44.934Z,10.80
2019-05-29T06:41:14.098Z,10.80
2019-05-29T06:43:44.113Z,10.80
2019-05-29T06:46:13.509Z,10.80
2019-05-29T06:48:53.626Z,10.80
2019-05-29T06:51:12.930Z,10.70
2019-05-29T06:53:41.797Z,10.80
2019-05-29T06:56:10.907Z,10.80
2019-05-29T06:58:40.095Z,10.80
2019-05-29T07:01:11.570Z,10.90
2019-05-29T07:03:41.481Z,11.10
2019-05-29T07:06:10.797Z,11.20
2019-05-29T07:08:45.017Z,11.50
2019-05-29T07:11:11.318Z,11.80
2019-05-29T07:13:42.855Z,12.30
2019-05-29T07:16:11.037Z,12.30
2019-05-29T07:18:45.390Z,12.70
2019-05-29T07:21:10.627Z,12.60
2019-05-29T07:23:41.103Z,12.60
2019-05-29T07:26:10.321Z,12.60
2019-05-29T07:28:58.846Z,12.60
2019-05-29T07:31:09.467Z,12.80
2019-05-29T07:33:38.993Z,12.70
2019-05-29T07:36:08.343Z,12.50
2019-05-29T07:38:39.655Z,12.40
2019-05-29T07:41:07.971Z,12.30
2019-05-29T07:43:37.614Z,12.70
2019-05-29T07:46:06.646Z,13.20
2019-05-29T07:48:35.680Z,13.10
2019-05-29T07:51:06.966Z,13.30
2019-05-29T07:53:34.857Z,13.40
2019-05-29T07:56:03.626Z,13.40
2019-05-29T07:58:32.469Z,13.40
2019-05-29T08:01:12.813Z,13.60
2019-05-29T08:03:32.099Z,13.30
2019-05-29T08:06:01.194Z,12.90
2019-05-29T08:08:29.909Z,12.60
2019-05-29T08:10:58.977Z,12.70
2019-05-29T08:13:27.727Z,12.80
2019-05-29T08:16:02.764Z,12.80
2019-05-29T08:18:27.945Z,12.60
2019-05-29T08:20:56.679Z,12.50
2019-05-29T08:23:25.557Z,12.30
2019-05-29T08:25:55.236Z,12.10
2019-05-29T09:04:17.281Z,13.00
2019-05-29T09:06:47.038Z,12.40
2019-05-29T09:09:16.039Z,12.20
2019-05-29T09:11:45.363Z,12.10
2019-05-29T09:14:16.366Z,12.00
2019-05-29T09:16:45.096Z,12.00
2019-05-29T09:19:16.319Z,12.10
2019-05-29T09:21:46.019Z,12.10
2019-05-29T09:24:16.247Z,12.10
2019-05-29T09:26:46.557Z,12.20
2019-05-29T09:29:19.963Z,12.30
2019-05-29T09:31:46.768Z,12.30
2019-05-29T09:34:16.670Z,12.40
2019-05-29T09:36:46.339Z,12.50
2019-05-29T09:39:16.725Z,12.50
2019-05-29T09:41:46.764Z,12.50
2019-05-29T09:44:31.167Z,12.90
2019-05-29T09:46:46.376Z,13.30
2019-05-29T09:49:16.673Z,13.40
2019-05-29T09:51:45.625Z,13.00
2019-05-29T09:54:14.512Z,13.20
2019-05-29T09:56:43.377Z,13.10
2019-05-29T09:59:12.177Z,13.20
2019-05-29T10:01:41.060Z,13.50
2019-05-29T10:04:09.966Z,13.50
2019-05-29T10:06:39.097Z,13.30
2019-05-29T10:09:09.205Z,13.20
2019-05-29T10:11:37.933Z,13.20
2019-05-29T10:14:08.388Z,13.10
2019-05-29T10:16:37.887Z,13.10
2019-05-29T10:19:06.928Z,13.10
2019-05-29T10:21:40.740Z,13.30
2019-05-29T10:24:06.704Z,13.20
2019-05-29T10:26:35.878Z,13.30
2019-05-29T10:29:09.126Z,13.60
2019-05-29T10:31:36.917Z,14.10
2019-05-29T10:34:05.680Z,14.20
2019-05-29T10:36:35.106Z,14.30
2019-05-29T10:39:06.164Z,14.40
2019-05-29T10:41:35.142Z,14.60
2019-05-29T10:44:05.446Z,14.50
2019-05-29T10:46:35.315Z,14.10
2019-05-29T10:49:05.198Z,14.70
2019-05-29T10:51:34.802Z,14.90
2019-05-29T10:54:04.128Z,15.50
2019-05-29T10:56:33.328Z,15.60
2019-05-29T10:59:02.302Z,15.30
2019-05-29T11:01:31.165Z,14.70
2019-05-29T11:04:00.054Z,14.40
2019-05-29T11:06:29.182Z,14.20
2019-05-29T11:08:58.038Z,14.10
2019-05-29T11:11:26.850Z,14.40
2019-05-29T11:13:57.059Z,14.00
2019-05-29T11:16:26.707Z,14.10
2019-05-29T11:18:57.576Z,14.00
2019-05-29T11:21:26.835Z,14.00
2019-05-29T11:23:56.056Z,13.60
2019-05-29T11:26:25.134Z,13.60
2019-05-29T11:28:54.464Z,13.70
2019-05-29T11:31:23.630Z,13.70
2019-05-29T11:33:53.054Z,13.20
2019-05-29T11:36:22.235Z,13.40
2019-05-29T11:38:52.467Z,13.30
2019-05-29T11:41:26.360Z,13.60
2019-05-29T11:43:52.700Z,13.60
2019-05-29T11:46:27.856Z,13.50
2019-05-29T11:48:57.472Z,13.70
2019-05-29T11:51:26.561Z,13.60
2019-05-29T11:53:55.536Z,13.80
2019-05-29T11:56:28.771Z,13.80
2019-05-29T11:58:58.920Z,13.70
2019-05-29T12:01:27.951Z,13.70
2019-05-29T12:04:18.429Z,13.60
2019-05-29T12:06:27.472Z,13.70
2019-05-29T12:08:57.782Z,13.90
2019-05-29T12:11:27.467Z,13.80
2019-05-29T12:13:57.913Z,13.30
2019-05-29T12:16:28.469Z,13.40
2019-05-29T12:18:57.837Z,13.40
2019-05-29T12:21:26.871Z,13.20
2019-05-29T12:23:56.144Z,13.10
2019-05-29T12:26:25.297Z,13.40
2019-05-29T12:29:01.552Z,13.90
2019-05-29T12:31:24.659Z,14.40
2019-05-29T12:33:54.887Z,14.70
2019-05-29T12:36:24.112Z,14.80
2019-05-29T12:38:53.530Z,14.70
2019-05-29T12:41:22.386Z,14.80
2019-05-29T12:43:51.342Z,14.90
2019-05-29T12:46:20.493Z,15.30
2019-05-29T12:48:49.495Z,15.60
2019-05-29T12:51:18.586Z,15.40
2019-05-29T12:53:47.457Z,15.40
2019-05-29T12:56:22.026Z,14.90
2019-05-29T12:58:52.021Z,15.10
2019-05-29T14:47:23.459Z,14.70
2019-05-29T14:49:52.424Z,14.90
2019-05-29T14:52:21.317Z,15.20
2019-05-29T14:54:50.696Z,15.40
2019-05-29T14:57:25.831Z,15.40
2019-05-29T14:59:51.387Z,15.50
2019-05-29T15:02:23.908Z,15.80
2019-05-29T15:04:51.531Z,16.00
2019-05-29T15:07:22.941Z,15.70
2019-05-29T15:09:51.304Z,15.60
2019-05-29T15:12:20.241Z,16.10
2019-05-29T15:14:48.997Z,16.00
2019-05-29T15:17:18.347Z,16.00
2019-05-29T15:19:47.324Z,15.90
2019-05-29T15:24:59.664Z,15.10
2019-05-29T15:27:16.203Z,14.70
2019-05-29T15:29:45.023Z,14.50
2019-05-29T15:32:14.618Z,14.40
2019-05-29T15:34:43.720Z,14.40
2019-05-29T15:37:15.465Z,14.60
2019-05-29T15:39:43.276Z,14.60
2019-05-29T15:42:12.879Z,14.80
2019-05-29T15:44:43.855Z,14.90
2019-05-29T15:47:13.036Z,14.90
2019-05-29T15:49:41.866Z,14.90
2019-05-29T15:52:11.063Z,14.90
2019-05-29T15:54:40.259Z,14.80
2019-05-29T15:57:09.282Z,14.60
2019-05-29T15:59:38.716Z,14.60
2019-05-29T16:02:09.350Z,14.70
2019-05-29T16:04:38.547Z,14.80
2019-05-29T16:07:07.871Z,15.00
2019-05-29T16:09:38.986Z,15.30
2019-05-29T16:12:08.829Z,15.60
2019-05-29T16:14:37.771Z,15.80
2019-05-29T16:17:06.899Z,16.40
2019-05-29T16:19:35.676Z,16.90
2019-05-29T16:22:04.673Z,16.80
2019-05-29T16:24:33.434Z,16.60
2019-05-29T16:27:08.690Z,16.80
2019-05-29T16:29:32.991Z,17.10
2019-05-29T16:32:01.823Z,16.70
2019-05-29T16:34:31.190Z,16.90
2019-05-29T16:37:01.455Z,17.50
2019-05-29T16:39:31.317Z,18.20
2019-05-29T16:42:00.315Z,17.90
2019-05-29T16:44:29.546Z,17.00
2019-05-29T16:46:58.588Z,15.80
2019-05-29T16:49:27.608Z,15.10
2019-05-29T16:51:56.500Z,14.90
2019-05-29T16:54:27.415Z,14.30
2019-05-29T16:56:56.329Z,13.70
2019-05-29T16:59:29.033Z,13.20
2019-05-29T17:01:59.849Z,12.90
2019-05-29T17:04:28.741Z,12.80
2019-05-29T17:06:57.910Z,12.80
2019-05-29T17:09:26.762Z,12.90
2019-05-29T17:11:57.054Z,13.00
2019-05-29T17:14:25.954Z,13.10
2019-05-29T17:16:55.246Z,13.20
2019-05-29T17:19:25.471Z,13.30
2019-05-29T17:21:55.058Z,13.30
2019-05-29T17:24:25.065Z,13.40
2019-05-29T17:26:54.058Z,13.30
2019-05-29T17:29:23.193Z,13.40
2019-05-29T17:31:52.296Z,13.40
2019-05-29T17:34:21.160Z,13.30
2019-05-29T17:36:50.579Z,13.30
2019-05-29T17:39:21.454Z,13.20
2019-05-29T17:41:50.730Z,13.20
2019-05-29T17:44:20.025Z,13.20
2019-05-29T17:46:49.660Z,13.20
2019-05-29T17:49:22.542Z,13.10
2019-05-29T17:51:49.576Z,13.10
2019-05-29T17:54:19.704Z,13.10
2019-05-29T17:56:48.791Z,13.20
2019-05-29T17:59:18.090Z,13.20
2019-05-29T18:01:47.591Z,13.30
2019-05-29T18:04:16.685Z,13.30
2019-05-29T18:06:45.649Z,13.30
2019-05-29T18:09:17.179Z,13.30
2019-05-29T18:11:47.884Z,13.40
2019-05-29T18:14:17.338Z,13.40
2019-05-29T18:16:46.685Z,13.50
2019-05-29T18:19:15.673Z,13.50
2019-05-29T18:21:44.579Z,13.40
2019-05-29T18:24:13.761Z,13.30
2019-05-29T18:26:47.253Z,13.20
2019-05-29T18:29:14.119Z,13.20
2019-05-29T18:31:43.829Z,13.10
2019-05-29T18:34:13.019Z,13.00
2019-05-29T18:36:42.340Z,13.00
2019-05-29T18:39:11.827Z,13.00
2019-05-29T18:41:40.926Z,12.90
2019-05-29T18:44:11.557Z,13.00
2019-05-29T18:46:43.759Z,12.90
2019-05-29T18:49:15.002Z,12.70
2019-05-29T18:51:44.272Z,12.50
2019-05-29T18:54:13.150Z,12.20
2019-05-29T18:56:42.269Z,12.00
2019-05-29T18:59:11.583Z,11.70
2019-05-29T19:01:41.565Z,11.40
2019-05-29T19:04:10.733Z,11.30
2019-05-29T19:06:39.977Z,11.10
2019-05-29T19:09:10.613Z,10.90
2019-05-29T19:11:40.221Z,10.70
2019-05-29T19:14:09.321Z,10.40
2019-05-29T19:16:39.588Z,10.10
2019-05-29T19:19:08.948Z,9.80
2019-05-29T19:21:38.231Z,9.50
2019-05-29T19:24:07.344Z,9.40
2019-05-29T19:26:36.860Z,9.20
2019-05-29T19:29:05.835Z,9.00
2019-05-29T19:31:34.710Z,8.90
2019-05-29T19:34:03.645Z,8.70
2019-05-29T19:36:33.808Z,8.60
2019-05-29T19:39:03.334Z,8.50
2019-05-29T19:41:32.324Z,8.40
2019-05-29T19:44:01.610Z,8.30
2019-05-29T19:46:37.312Z,8.20
2019-05-29T19:49:02.620Z,8.20
2019-05-29T19:51:31.613Z,8.10
2019-05-29T19:54:00.496Z,8.00
2019-05-29T19:56:29.759Z,7.90
2019-05-29T19:58:58.796Z,7.90
2019-05-29T20:01:31.617Z,7.90
2019-05-29T20:03:59.872Z,7.80
2019-05-29T20:06:29.172Z,7.80
2019-05-29T20:08:58.256Z,7.70
2019-05-29T20:11:27.716Z,7.60
2019-05-29T20:13:56.862Z,7.60
2019-05-29T20:16:25.959Z,7.50
2019-05-29T20:18:55.335Z,7.40
2019-05-29T20:21:24.562Z,7.40
2019-05-29T20:23:53.658Z,7.30
2019-05-29T20:26:22.767Z,7.30
2019-05-29T20:28:51.771Z,7.20
2019-05-29T20:31:20.946Z,7.20
2019-05-29T20:33:49.708Z,7.10
2019-05-29T20:36:18.701Z,7.00
2019-05-29T20:38:47.624Z,7.00
2019-05-29T20:41:16.517Z,6.90
2019-05-29T20:43:45.407Z,6.90
2019-05-29T20:46:14.300Z,6.90
2019-05-29T20:48:43.190Z,6.80
2019-05-29T20:51:12.055Z,6.80
2019-05-29T20:53:41.819Z,6.70
2019-05-29T20:56:10.967Z,6.70
2019-05-29T20:58:39.945Z,6.70
2019-05-29T21:01:08.881Z,6.60
2019-05-29T21:03:38.646Z,6.60
2019-05-29T21:06:07.689Z,6.50
2019-05-29T21:08:36.935Z,6.50
2019-05-29T21:11:06.057Z,6.40
2019-05-29T21:13:35.343Z,6.40
2019-05-29T21:16:04.280Z,6.30
2019-05-29T21:18:33.832Z,6.30
2019-05-29T21:21:02.799Z,6.30
2019-05-29T21:23:31.570Z,6.20
2019-05-29T21:26:00.438Z,6.20
2019-05-29T21:28:39.975Z,6.10
2019-05-29T21:31:01.390Z,6.00
2019-05-29T21:33:30.226Z,6.00
2019-05-29T21:36:00.022Z,5.90
2019-05-29T21:38:29.197Z,5.90
2019-05-29T21:40:58.113Z,5.80
2019-05-29T21:43:27.008Z,5.80
2019-05-29T21:45:55.900Z,5.80
2019-05-29T21:48:24.789Z,5.70
2019-05-29T21:50:53.885Z,5.70
2019-05-29T21:53:23.817Z,5.70
2019-05-29T21:55:54.368Z,5.60
2019-05-29T21:58:23.394Z,5.60
2019-05-29T22:00:53.823Z,5.50
2019-05-29T22:03:22.719Z,5.50
2019-05-29T22:05:51.947Z,5.40
2019-05-29T22:08:20.842Z,5.40
2019-05-29T22:10:49.732Z,5.40
2019-05-29T22:13:18.729Z,5.30
2019-05-29T22:15:47.795Z,5.30
2019-05-29T22:18:16.919Z,5.20
2019-05-29T22:20:45.816Z,5.20
2019-05-29T22:23:14.772Z,5.10
2019-05-29T22:25:43.784Z,5.10
2019-05-29T22:28:12.691Z,5.10
2019-05-29T22:30:42.964Z,5.10
2019-05-29T22:33:11.774Z,5.00
2019-05-29T22:35:40.759Z,5.00
2019-05-29T22:38:09.696Z,5.00
2019-05-29T22:40:38.585Z,4.90
2019-05-29T22:43:07.686Z,4.90
2019-05-29T22:45:36.928Z,4.90
2019-05-29T22:48:05.858Z,4.80
2019-05-29T22:50:35.504Z,5.00
2019-05-29T22:53:04.478Z,5.10
2019-05-29T22:55:33.369Z,5.20
2019-05-29T22:58:02.584Z,5.20
2019-05-29T23:00:31.638Z,5.10
2019-05-29T23:03:00.659Z,5.00
2019-05-29T23:05:29.548Z,4.80
2019-05-29T23:07:58.312Z,4.70
2019-05-29T23:10:27.333Z,4.80
2019-05-29T23:12:56.461Z,4.70
2019-05-29T23:15:25.534Z,4.60
2019-05-29T23:17:54.552Z,4.50
2019-05-29T23:20:23.585Z,4.50
2019-05-29T23:22:52.635Z,4.50
2019-05-29T23:25:21.723Z,4.40
2019-05-29T23:27:50.467Z,4.40
2019-05-29T23:30:19.897Z,4.30
2019-05-29T23:32:48.769Z,4.30
2019-05-29T23:35:17.756Z,4.20
2019-05-29T23:37:46.581Z,4.10
2019-05-29T23:40:16.088Z,4.00
2019-05-29T23:42:45.064Z,4.00
2019-05-29T23:45:13.841Z,3.90
2019-05-29T23:47:42.725Z,3.90
2019-05-29T23:50:11.887Z,3.80
2019-05-29T23:52:40.962Z,3.80
2019-05-29T23:55:10.547Z,3.80
2019-05-29T23:57:39.492Z,3.80
